sensor_id;sensor_type;location;lat;lon;timestamp;P1;durP1;ratioP1;P2;durP2;ratioP2
79798;SDS011;69283;48.024;11.090;2023-12-04T00:01:47;13.15;;;6.00;;
79798;SDS011;69283;48.024;11.090;2023-12-04T00:04:13;16.67;;;7.43;;
79798;SDS011;69283;48.024;11.090;2023-12-04T00:06:38;13.20;;;6.60;;
79798;SDS011;69283;48.024;11.090;2023-12-04T00:09:05;12.45;;;5.65;;
79798;SDS011;69283;48.024;11.090;2023-12-04T00:11:30;15.90;;;5.80;;
79798;SDS011;69283;48.024;11.090;2023-12-04T00:13:57;17.45;;;6.85;;
79798;SDS011;69283;48.024;11.090;2023-12-04T00:16:23;19.98;;;7.03;;
79798;SDS011;69283;48.024;11.090;2023-12-04T00:18:48;14.23;;;6.43;;
79798;SDS011;69283;48.024;11.090;2023-12-04T00:21:13;16.02;;;7.63;;
79798;SDS011;69283;48.024;11.090;2023-12-04T00:23:39;18.85;;;7.82;;
79798;SDS011;69283;48.024;11.090;2023-12-04T00:26:04;16.30;;;7.73;;
79798;SDS011;69283;48.024;11.090;2023-12-04T00:28:31;20.63;;;8.07;;
79798;SDS011;69283;48.024;11.090;2023-12-04T00:30:56;18.00;;;7.35;;
79798;SDS011;69283;48.024;11.090;2023-12-04T00:33:23;17.27;;;6.95;;
79798;SDS011;69283;48.024;11.090;2023-12-04T00:35:48;11.87;;;5.47;;
79798;SDS011;69283;48.024;11.090;2023-12-04T00:38:13;14.47;;;6.67;;
79798;SDS011;69283;48.024;11.090;2023-12-04T00:40:39;13.27;;;7.00;;
79798;SDS011;69283;48.024;11.090;2023-12-04T00:43:04;19.47;;;8.17;;
79798;SDS011;69283;48.024;11.090;2023-12-04T00:45:29;16.00;;;7.23;;
79798;SDS011;69283;48.024;11.090;2023-12-04T00:47:54;12.87;;;6.90;;
79798;SDS011;69283;48.024;11.090;2023-12-04T00:50:20;12.85;;;4.70;;
79798;SDS011;69283;48.024;11.090;2023-12-04T00:52:45;16.58;;;6.30;;
79798;SDS011;69283;48.024;11.090;2023-12-04T00:55:11;15.48;;;6.25;;
79798;SDS011;69283;48.024;11.090;2023-12-04T00:57:36;12.68;;;5.28;;
79798;SDS011;69283;48.024;11.090;2023-12-04T01:00:03;16.60;;;5.80;;
79798;SDS011;69283;48.024;11.090;2023-12-04T01:02:28;17.08;;;6.65;;
79798;SDS011;69283;48.024;11.090;2023-12-04T01:04:54;14.47;;;6.37;;
79798;SDS011;69283;48.024;11.090;2023-12-04T01:07:19;13.30;;;6.73;;
79798;SDS011;69283;48.024;11.090;2023-12-04T01:09:44;18.80;;;7.07;;
79798;SDS011;69283;48.024;11.090;2023-12-04T01:12:09;13.43;;;6.90;;
79798;SDS011;69283;48.024;11.090;2023-12-04T01:14:35;17.80;;;7.73;;
79798;SDS011;69283;48.024;11.090;2023-12-04T01:17:03;13.70;;;6.93;;
79798;SDS011;69283;48.024;11.090;2023-12-04T01:19:31;14.40;;;6.70;;
79798;SDS011;69283;48.024;11.090;2023-12-04T01:21:56;14.20;;;5.25;;
79798;SDS011;69283;48.024;11.090;2023-12-04T01:24:22;20.47;;;7.93;;
79798;SDS011;69283;48.024;11.090;2023-12-04T01:26:48;17.48;;;8.23;;
79798;SDS011;69283;48.024;11.090;2023-12-04T01:29:13;16.60;;;8.35;;
79798;SDS011;69283;48.024;11.090;2023-12-04T01:31:38;20.93;;;7.90;;
79798;SDS011;69283;48.024;11.090;2023-12-04T01:34:04;18.43;;;7.07;;
79798;SDS011;69283;48.024;11.090;2023-12-04T01:36:29;15.97;;;6.73;;
79798;SDS011;69283;48.024;11.090;2023-12-04T01:38:54;15.45;;;5.80;;
79798;SDS011;69283;48.024;11.090;2023-12-04T01:41:19;16.30;;;5.70;;
79798;SDS011;69283;48.024;11.090;2023-12-04T01:43:45;16.23;;;6.20;;
79798;SDS011;69283;48.024;11.090;2023-12-04T01:46:10;15.40;;;6.95;;
79798;SDS011;69283;48.024;11.090;2023-12-04T01:48:36;17.10;;;6.97;;
79798;SDS011;69283;48.024;11.090;2023-12-04T01:51:03;15.80;;;7.10;;
79798;SDS011;69283;48.024;11.090;2023-12-04T01:53:32;14.65;;;6.85;;
79798;SDS011;69283;48.024;11.090;2023-12-04T01:55:59;17.55;;;6.97;;
79798;SDS011;69283;48.024;11.090;2023-12-04T01:58:24;16.30;;;7.33;;
79798;SDS011;69283;48.024;11.090;2023-12-04T02:00:49;15.40;;;6.18;;
79798;SDS011;69283;48.024;11.090;2023-12-04T02:03:15;15.98;;;7.38;;
79798;SDS011;69283;48.024;11.090;2023-12-04T02:05:40;16.05;;;6.70;;
79798;SDS011;69283;48.024;11.090;2023-12-04T02:08:08;13.07;;;5.95;;
79798;SDS011;69283;48.024;11.090;2023-12-04T02:10:35;20.35;;;8.25;;
79798;SDS011;69283;48.024;11.090;2023-12-04T02:13:01;22.15;;;6.22;;
79798;SDS011;69283;48.024;11.090;2023-12-04T02:15:27;20.10;;;8.52;;
79798;SDS011;69283;48.024;11.090;2023-12-04T02:17:52;17.23;;;6.88;;
79798;SDS011;69283;48.024;11.090;2023-12-04T02:20:18;23.17;;;8.13;;
79798;SDS011;69283;48.024;11.090;2023-12-04T02:22:43;17.00;;;7.60;;
79798;SDS011;69283;48.024;11.090;2023-12-04T02:25:09;21.60;;;8.60;;
79798;SDS011;69283;48.024;11.090;2023-12-04T02:30:14;24.92;;;9.93;;
79798;SDS011;69283;48.024;11.090;2023-12-04T02:32:45;30.25;;;11.75;;
79798;SDS011;69283;48.024;11.090;2023-12-04T02:37:40;25.05;;;8.43;;
79798;SDS011;69283;48.024;11.090;2023-12-04T02:40:06;24.58;;;10.60;;
79798;SDS011;69283;48.024;11.090;2023-12-04T02:42:32;20.55;;;8.13;;
79798;SDS011;69283;48.024;11.090;2023-12-04T02:44:57;22.70;;;8.85;;
79798;SDS011;69283;48.024;11.090;2023-12-04T02:47:24;26.02;;;8.65;;
79798;SDS011;69283;48.024;11.090;2023-12-04T02:49:50;25.27;;;9.82;;
79798;SDS011;69283;48.024;11.090;2023-12-04T02:52:15;19.42;;;8.45;;
79798;SDS011;69283;48.024;11.090;2023-12-04T02:54:40;22.20;;;9.13;;
79798;SDS011;69283;48.024;11.090;2023-12-04T02:57:07;20.08;;;9.10;;
79798;SDS011;69283;48.024;11.090;2023-12-04T02:59:32;23.08;;;8.90;;
79798;SDS011;69283;48.024;11.090;2023-12-04T03:01:57;24.05;;;8.70;;
79798;SDS011;69283;48.024;11.090;2023-12-04T03:04:23;21.20;;;9.17;;
79798;SDS011;69283;48.024;11.090;2023-12-04T03:06:48;23.60;;;9.30;;
79798;SDS011;69283;48.024;11.090;2023-12-04T03:09:13;22.37;;;10.10;;
79798;SDS011;69283;48.024;11.090;2023-12-04T03:11:39;23.77;;;9.88;;
79798;SDS011;69283;48.024;11.090;2023-12-04T03:14:05;19.27;;;7.72;;
79798;SDS011;69283;48.024;11.090;2023-12-04T03:16:30;22.83;;;10.83;;
79798;SDS011;69283;48.024;11.090;2023-12-04T03:18:57;27.93;;;9.70;;
79798;SDS011;69283;48.024;11.090;2023-12-04T03:21:22;25.63;;;9.00;;
79798;SDS011;69283;48.024;11.090;2023-12-04T03:23:48;22.67;;;9.25;;
79798;SDS011;69283;48.024;11.090;2023-12-04T03:26:13;18.30;;;8.43;;
79798;SDS011;69283;48.024;11.090;2023-12-04T03:28:38;20.87;;;7.83;;
79798;SDS011;69283;48.024;11.090;2023-12-04T03:31:06;18.38;;;8.13;;
79798;SDS011;69283;48.024;11.090;2023-12-04T03:33:32;20.35;;;8.70;;
79798;SDS011;69283;48.024;11.090;2023-12-04T03:35:58;25.87;;;9.97;;
79798;SDS011;69283;48.024;11.090;2023-12-04T03:38:24;21.85;;;8.38;;
79798;SDS011;69283;48.024;11.090;2023-12-04T03:40:49;31.58;;;10.00;;
79798;SDS011;69283;48.024;11.090;2023-12-04T03:43:15;24.77;;;9.47;;
79798;SDS011;69283;48.024;11.090;2023-12-04T03:45:40;26.10;;;9.23;;
79798;SDS011;69283;48.024;11.090;2023-12-04T03:48:05;26.47;;;8.83;;
79798;SDS011;69283;48.024;11.090;2023-12-04T03:50:30;26.33;;;9.43;;
79798;SDS011;69283;48.024;11.090;2023-12-04T03:52:56;25.83;;;9.77;;
79798;SDS011;69283;48.024;11.090;2023-12-04T03:55:22;28.65;;;9.98;;
79798;SDS011;69283;48.024;11.090;2023-12-04T03:57:47;24.83;;;9.20;;
79798;SDS011;69283;48.024;11.090;2023-12-04T04:00:13;27.47;;;9.73;;
79798;SDS011;69283;48.024;11.090;2023-12-04T04:02:39;29.08;;;10.00;;
79798;SDS011;69283;48.024;11.090;2023-12-04T04:05:04;25.48;;;10.05;;
79798;SDS011;69283;48.024;11.090;2023-12-04T04:07:30;32.90;;;11.85;;
79798;SDS011;69283;48.024;11.090;2023-12-04T04:09:56;30.00;;;10.77;;
79798;SDS011;69283;48.024;11.090;2023-12-04T04:12:21;27.97;;;10.43;;
79798;SDS011;69283;48.024;11.090;2023-12-04T04:14:46;25.70;;;11.57;;
79798;SDS011;69283;48.024;11.090;2023-12-04T04:17:12;29.97;;;9.73;;
79798;SDS011;69283;48.024;11.090;2023-12-04T04:19:37;23.70;;;8.87;;
79798;SDS011;69283;48.024;11.090;2023-12-04T04:22:02;21.00;;;8.83;;
79798;SDS011;69283;48.024;11.090;2023-12-04T04:24:28;24.80;;;8.77;;
79798;SDS011;69283;48.024;11.090;2023-12-04T04:26:55;27.63;;;9.82;;
79798;SDS011;69283;48.024;11.090;2023-12-04T04:29:20;18.20;;;9.20;;
79798;SDS011;69283;48.024;11.090;2023-12-04T04:31:45;22.77;;;10.50;;
79798;SDS011;69283;48.024;11.090;2023-12-04T04:34:10;32.37;;;11.40;;
79798;SDS011;69283;48.024;11.090;2023-12-04T04:36:36;24.73;;;10.53;;
79798;SDS011;69283;48.024;11.090;2023-12-04T04:39:02;25.85;;;10.90;;
79798;SDS011;69283;48.024;11.090;2023-12-04T04:41:27;27.15;;;9.70;;
79798;SDS011;69283;48.024;11.090;2023-12-04T04:43:52;24.43;;;9.30;;
79798;SDS011;69283;48.024;11.090;2023-12-04T04:46:18;23.92;;;9.20;;
79798;SDS011;69283;48.024;11.090;2023-12-04T04:48:44;23.70;;;8.88;;
79798;SDS011;69283;48.024;11.090;2023-12-04T04:51:09;15.02;;;7.32;;
79798;SDS011;69283;48.024;11.090;2023-12-04T04:53:35;23.90;;;10.20;;
79798;SDS011;69283;48.024;11.090;2023-12-04T04:56:00;21.87;;;8.17;;
79798;SDS011;69283;48.024;11.090;2023-12-04T04:58:26;24.02;;;9.15;;
79798;SDS011;69283;48.024;11.090;2023-12-04T05:00:51;21.67;;;7.93;;
79798;SDS011;69283;48.024;11.090;2023-12-04T05:03:17;28.73;;;9.40;;
79798;SDS011;69283;48.024;11.090;2023-12-04T05:05:43;23.80;;;9.98;;
79798;SDS011;69283;48.024;11.090;2023-12-04T05:08:09;28.53;;;10.33;;
79798;SDS011;69283;48.024;11.090;2023-12-04T05:10:34;24.27;;;9.80;;
79798;SDS011;69283;48.024;11.090;2023-12-04T05:13:03;26.75;;;9.98;;
79798;SDS011;69283;48.024;11.090;2023-12-04T05:15:30;23.92;;;9.10;;
79798;SDS011;69283;48.024;11.090;2023-12-04T05:17:56;19.63;;;9.07;;
79798;SDS011;69283;48.024;11.090;2023-12-04T05:20:23;21.40;;;8.57;;
79798;SDS011;69283;48.024;11.090;2023-12-04T05:22:48;21.77;;;9.07;;
79798;SDS011;69283;48.024;11.090;2023-12-04T05:25:14;21.92;;;7.85;;
79798;SDS011;69283;48.024;11.090;2023-12-04T05:27:41;18.90;;;8.40;;
79798;SDS011;69283;48.024;11.090;2023-12-04T05:30:06;20.30;;;8.80;;
79798;SDS011;69283;48.024;11.090;2023-12-04T05:32:33;20.33;;;8.05;;
79798;SDS011;69283;48.024;11.090;2023-12-04T05:34:58;17.77;;;8.33;;
79798;SDS011;69283;48.024;11.090;2023-12-04T05:37:23;17.93;;;7.23;;
79798;SDS011;69283;48.024;11.090;2023-12-04T05:39:49;19.10;;;9.10;;
79798;SDS011;69283;48.024;11.090;2023-12-04T05:42:14;19.77;;;8.97;;
79798;SDS011;69283;48.024;11.090;2023-12-04T05:44:41;24.70;;;8.95;;
79798;SDS011;69283;48.024;11.090;2023-12-04T05:47:06;26.07;;;9.40;;
79798;SDS011;69283;48.024;11.090;2023-12-04T05:49:33;18.38;;;8.80;;
79798;SDS011;69283;48.024;11.090;2023-12-04T05:51:58;22.20;;;8.63;;
79798;SDS011;69283;48.024;11.090;2023-12-04T05:54:23;19.17;;;7.93;;
79798;SDS011;69283;48.024;11.090;2023-12-04T05:56:49;22.00;;;9.13;;
79798;SDS011;69283;48.024;11.090;2023-12-04T05:59:14;21.35;;;8.52;;
79798;SDS011;69283;48.024;11.090;2023-12-04T06:01:39;21.37;;;8.43;;
79798;SDS011;69283;48.024;11.090;2023-12-04T06:04:05;25.10;;;9.77;;
79798;SDS011;69283;48.024;11.090;2023-12-04T06:06:30;22.50;;;8.77;;
79798;SDS011;69283;48.024;11.090;2023-12-04T06:08:55;23.37;;;8.70;;
79798;SDS011;69283;48.024;11.090;2023-12-04T06:11:21;26.40;;;9.43;;
79798;SDS011;69283;48.024;11.090;2023-12-04T06:13:46;25.50;;;8.80;;
79798;SDS011;69283;48.024;11.090;2023-12-04T06:16:12;24.77;;;9.55;;
79798;SDS011;69283;48.024;11.090;2023-12-04T06:18:38;29.37;;;10.60;;
79798;SDS011;69283;48.024;11.090;2023-12-04T06:21:03;24.90;;;9.43;;
79798;SDS011;69283;48.024;11.090;2023-12-04T06:23:29;23.75;;;9.68;;
79798;SDS011;69283;48.024;11.090;2023-12-04T06:25:54;24.13;;;9.48;;
79798;SDS011;69283;48.024;11.090;2023-12-04T06:28:20;25.40;;;10.95;;
79798;SDS011;69283;48.024;11.090;2023-12-04T06:30:45;21.40;;;9.98;;
79798;SDS011;69283;48.024;11.090;2023-12-04T06:33:11;27.50;;;9.93;;
79798;SDS011;69283;48.024;11.090;2023-12-04T06:35:38;27.02;;;10.48;;
79798;SDS011;69283;48.024;11.090;2023-12-04T06:38:06;86.88;;;33.45;;
79798;SDS011;69283;48.024;11.090;2023-12-04T06:40:33;105.63;;;40.17;;
79798;SDS011;69283;48.024;11.090;2023-12-04T06:42:59;25.08;;;9.80;;
79798;SDS011;69283;48.024;11.090;2023-12-04T06:45:25;26.88;;;11.27;;
79798;SDS011;69283;48.024;11.090;2023-12-04T06:47:51;52.83;;;16.83;;
79798;SDS011;69283;48.024;11.090;2023-12-04T06:50:18;28.63;;;10.93;;
79798;SDS011;69283;48.024;11.090;2023-12-04T06:52:43;35.40;;;12.13;;
79798;SDS011;69283;48.024;11.090;2023-12-04T06:55:09;25.57;;;11.67;;
79798;SDS011;69283;48.024;11.090;2023-12-04T06:57:34;29.80;;;11.03;;
79798;SDS011;69283;48.024;11.090;2023-12-04T06:59:59;29.80;;;12.03;;
79798;SDS011;69283;48.024;11.090;2023-12-04T07:02:25;30.77;;;13.20;;
79798;SDS011;69283;48.024;11.090;2023-12-04T07:04:50;35.90;;;12.87;;
79798;SDS011;69283;48.024;11.090;2023-12-04T07:07:15;30.10;;;11.00;;
79798;SDS011;69283;48.024;11.090;2023-12-04T07:09:41;35.75;;;13.85;;
79798;SDS011;69283;48.024;11.090;2023-12-04T07:12:06;37.50;;;13.27;;
79798;SDS011;69283;48.024;11.090;2023-12-04T07:14:31;30.90;;;11.93;;
79798;SDS011;69283;48.024;11.090;2023-12-04T07:16:57;33.05;;;10.52;;
79798;SDS011;69283;48.024;11.090;2023-12-04T07:19:22;31.50;;;12.60;;
79798;SDS011;69283;48.024;11.090;2023-12-04T07:21:48;34.60;;;10.57;;
79798;SDS011;69283;48.024;11.090;2023-12-04T07:24:13;63.95;;;21.98;;
79798;SDS011;69283;48.024;11.090;2023-12-04T07:26:39;26.77;;;10.33;;
79798;SDS011;69283;48.024;11.090;2023-12-04T07:29:04;38.08;;;11.73;;
79798;SDS011;69283;48.024;11.090;2023-12-04T07:31:29;25.58;;;9.00;;
79798;SDS011;69283;48.024;11.090;2023-12-04T07:33:55;30.23;;;11.30;;
79798;SDS011;69283;48.024;11.090;2023-12-04T07:36:21;30.27;;;10.18;;
79798;SDS011;69283;48.024;11.090;2023-12-04T07:38:46;30.20;;;10.57;;
79798;SDS011;69283;48.024;11.090;2023-12-04T07:41:11;41.65;;;17.98;;
79798;SDS011;69283;48.024;11.090;2023-12-04T07:43:38;29.88;;;12.77;;
79798;SDS011;69283;48.024;11.090;2023-12-04T07:46:04;30.63;;;11.80;;
79798;SDS011;69283;48.024;11.090;2023-12-04T07:48:30;27.10;;;10.20;;
79798;SDS011;69283;48.024;11.090;2023-12-04T07:50:56;24.98;;;10.25;;
79798;SDS011;69283;48.024;11.090;2023-12-04T07:53:21;25.43;;;10.03;;
79798;SDS011;69283;48.024;11.090;2023-12-04T07:55:47;23.02;;;10.13;;
79798;SDS011;69283;48.024;11.090;2023-12-04T07:58:13;24.10;;;9.48;;
79798;SDS011;69283;48.024;11.090;2023-12-04T08:00:39;33.63;;;10.18;;
79798;SDS011;69283;48.024;11.090;2023-12-04T08:03:04;26.35;;;8.93;;
79798;SDS011;69283;48.024;11.090;2023-12-04T08:05:29;26.83;;;8.53;;
79798;SDS011;69283;48.024;11.090;2023-12-04T08:07:56;32.33;;;11.85;;
79798;SDS011;69283;48.024;11.090;2023-12-04T08:10:22;34.45;;;12.05;;
79798;SDS011;69283;48.024;11.090;2023-12-04T08:12:48;36.28;;;10.57;;
79798;SDS011;69283;48.024;11.090;2023-12-04T08:15:13;38.08;;;11.30;;
79798;SDS011;69283;48.024;11.090;2023-12-04T08:17:38;25.23;;;9.67;;
79798;SDS011;69283;48.024;11.090;2023-12-04T08:20:03;35.05;;;11.98;;
79798;SDS011;69283;48.024;11.090;2023-12-04T08:22:29;31.83;;;11.35;;
79798;SDS011;69283;48.024;11.090;2023-12-04T08:24:54;35.30;;;11.87;;
79798;SDS011;69283;48.024;11.090;2023-12-04T08:27:20;36.30;;;13.70;;
79798;SDS011;69283;48.024;11.090;2023-12-04T08:29:45;32.80;;;11.57;;
79798;SDS011;69283;48.024;11.090;2023-12-04T08:32:10;31.30;;;11.48;;
79798;SDS011;69283;48.024;11.090;2023-12-04T08:34:36;30.35;;;12.48;;
79798;SDS011;69283;48.024;11.090;2023-12-04T08:37:01;25.73;;;10.73;;
79798;SDS011;69283;48.024;11.090;2023-12-04T08:39:27;35.67;;;12.45;;
79798;SDS011;69283;48.024;11.090;2023-12-04T08:41:52;26.60;;;11.20;;
79798;SDS011;69283;48.024;11.090;2023-12-04T08:44:17;23.52;;;9.15;;
79798;SDS011;69283;48.024;11.090;2023-12-04T08:46:43;24.30;;;9.43;;
79798;SDS011;69283;48.024;11.090;2023-12-04T08:49:09;18.65;;;8.20;;
79798;SDS011;69283;48.024;11.090;2023-12-04T08:51:34;17.88;;;7.43;;
79798;SDS011;69283;48.024;11.090;2023-12-04T08:54:00;29.10;;;9.63;;
79798;SDS011;69283;48.024;11.090;2023-12-04T08:56:25;37.87;;;13.20;;
79798;SDS011;69283;48.024;11.090;2023-12-04T08:58:51;40.63;;;13.40;;
79798;SDS011;69283;48.024;11.090;2023-12-04T09:01:16;27.98;;;12.02;;
79798;SDS011;69283;48.024;11.090;2023-12-04T09:03:42;27.67;;;13.17;;
79798;SDS011;69283;48.024;11.090;2023-12-04T09:06:07;37.00;;;13.23;;
79798;SDS011;69283;48.024;11.090;2023-12-04T09:08:33;26.13;;;11.88;;
79798;SDS011;69283;48.024;11.090;2023-12-04T09:10:58;28.03;;;12.87;;
79798;SDS011;69283;48.024;11.090;2023-12-04T09:13:23;29.63;;;11.97;;
79798;SDS011;69283;48.024;11.090;2023-12-04T09:15:48;24.38;;;11.63;;
79798;SDS011;69283;48.024;11.090;2023-12-04T09:18:14;27.20;;;9.27;;
79798;SDS011;69283;48.024;11.090;2023-12-04T09:20:40;17.13;;;8.38;;
79798;SDS011;69283;48.024;11.090;2023-12-04T09:23:06;21.20;;;8.93;;
79798;SDS011;69283;48.024;11.090;2023-12-04T09:25:31;19.90;;;7.67;;
79798;SDS011;69283;48.024;11.090;2023-12-04T09:27:56;17.80;;;7.63;;
79798;SDS011;69283;48.024;11.090;2023-12-04T09:30:21;20.23;;;9.00;;
79798;SDS011;69283;48.024;11.090;2023-12-04T09:32:49;21.13;;;8.37;;
79798;SDS011;69283;48.024;11.090;2023-12-04T09:35:14;21.88;;;7.32;;
79798;SDS011;69283;48.024;11.090;2023-12-04T09:37:40;20.98;;;8.40;;
79798;SDS011;69283;48.024;11.090;2023-12-04T09:40:05;17.47;;;7.23;;
79798;SDS011;69283;48.024;11.090;2023-12-04T09:42:33;24.10;;;11.10;;
79798;SDS011;69283;48.024;11.090;2023-12-04T09:44:59;24.58;;;11.68;;
79798;SDS011;69283;48.024;11.090;2023-12-04T09:47:25;27.67;;;11.18;;
79798;SDS011;69283;48.024;11.090;2023-12-04T09:49:51;25.10;;;10.85;;
79798;SDS011;69283;48.024;11.090;2023-12-04T09:52:18;25.80;;;11.27;;
79798;SDS011;69283;48.024;11.090;2023-12-04T09:54:44;26.33;;;11.23;;
79798;SDS011;69283;48.024;11.090;2023-12-04T09:57:10;27.95;;;12.98;;
79798;SDS011;69283;48.024;11.090;2023-12-04T09:59:37;37.03;;;14.85;;
79798;SDS011;69283;48.024;11.090;2023-12-04T10:02:04;22.77;;;10.45;;
79798;SDS011;69283;48.024;11.090;2023-12-04T10:04:29;26.90;;;10.45;;
79798;SDS011;69283;48.024;11.090;2023-12-04T10:06:55;26.85;;;10.70;;
79798;SDS011;69283;48.024;11.090;2023-12-04T10:09:21;23.20;;;10.35;;
79798;SDS011;69283;48.024;11.090;2023-12-04T10:11:47;29.33;;;11.63;;
79798;SDS011;69283;48.024;11.090;2023-12-04T10:14:16;34.70;;;12.48;;
79798;SDS011;69283;48.024;11.090;2023-12-04T10:16:46;25.10;;;10.73;;
79798;SDS011;69283;48.024;11.090;2023-12-04T10:19:19;23.67;;;10.48;;
79798;SDS011;69283;48.024;11.090;2023-12-04T10:21:45;25.40;;;11.05;;
79798;SDS011;69283;48.024;11.090;2023-12-04T10:24:13;19.42;;;10.32;;
79798;SDS011;69283;48.024;11.090;2023-12-04T10:27:04;25.98;;;9.18;;
79798;SDS011;69283;48.024;11.090;2023-12-04T10:29:42;25.75;;;9.27;;
79798;SDS011;69283;48.024;11.090;2023-12-04T10:32:09;22.92;;;8.60;;
79798;SDS011;69283;48.024;11.090;2023-12-04T10:34:34;19.38;;;7.63;;
79798;SDS011;69283;48.024;11.090;2023-12-04T10:37:00;14.88;;;6.60;;
79798;SDS011;69283;48.024;11.090;2023-12-04T10:39:26;14.35;;;7.25;;
79798;SDS011;69283;48.024;11.090;2023-12-04T10:42:01;15.13;;;6.90;;
79798;SDS011;69283;48.024;11.090;2023-12-04T10:44:27;15.32;;;6.85;;
79798;SDS011;69283;48.024;11.090;2023-12-04T10:46:54;15.45;;;6.50;;
79798;SDS011;69283;48.024;11.090;2023-12-04T10:49:24;14.18;;;7.20;;
79798;SDS011;69283;48.024;11.090;2023-12-04T10:51:55;14.68;;;8.10;;
79798;SDS011;69283;48.024;11.090;2023-12-04T10:56:48;13.57;;;5.78;;
79798;SDS011;69283;48.024;11.090;2023-12-04T10:59:17;16.63;;;7.18;;
79798;SDS011;69283;48.024;11.090;2023-12-04T11:01:46;12.10;;;5.95;;
79798;SDS011;69283;48.024;11.090;2023-12-04T11:04:14;15.05;;;7.18;;
79798;SDS011;69283;48.024;11.090;2023-12-04T11:06:43;14.82;;;6.32;;
79798;SDS011;69283;48.024;11.090;2023-12-04T11:09:14;13.35;;;6.70;;
79798;SDS011;69283;48.024;11.090;2023-12-04T11:11:44;14.15;;;5.88;;
79798;SDS011;69283;48.024;11.090;2023-12-04T11:14:13;13.70;;;6.53;;
79798;SDS011;69283;48.024;11.090;2023-12-04T11:16:47;13.80;;;6.50;;
79798;SDS011;69283;48.024;11.090;2023-12-04T11:22:02;12.68;;;5.55;;
79798;SDS011;69283;48.024;11.090;2023-12-04T11:24:28;13.27;;;5.78;;
79798;SDS011;69283;48.024;11.090;2023-12-04T11:26:53;8.40;;;5.67;;
79798;SDS011;69283;48.024;11.090;2023-12-04T11:29:19;9.38;;;4.40;;
79798;SDS011;69283;48.024;11.090;2023-12-04T11:31:47;12.02;;;6.00;;
79798;SDS011;69283;48.024;11.090;2023-12-04T11:34:12;9.33;;;3.93;;
79798;SDS011;69283;48.024;11.090;2023-12-04T11:36:38;12.52;;;5.38;;
79798;SDS011;69283;48.024;11.090;2023-12-04T11:39:08;35.53;;;15.13;;
79798;SDS011;69283;48.024;11.090;2023-12-04T11:41:35;13.50;;;5.18;;
79798;SDS011;69283;48.024;11.090;2023-12-04T11:44:01;14.02;;;6.88;;
79798;SDS011;69283;48.024;11.090;2023-12-04T11:46:28;15.68;;;6.47;;
79798;SDS011;69283;48.024;11.090;2023-12-04T11:48:56;12.80;;;6.90;;
79798;SDS011;69283;48.024;11.090;2023-12-04T11:54:16;14.80;;;7.43;;
79798;SDS011;69283;48.024;11.090;2023-12-04T11:56:56;24.30;;;10.43;;
79798;SDS011;69283;48.024;11.090;2023-12-04T11:59:25;12.48;;;6.53;;
79798;SDS011;69283;48.024;11.090;2023-12-04T12:01:55;13.25;;;5.72;;
79798;SDS011;69283;48.024;11.090;2023-12-04T12:04:25;10.15;;;5.40;;
79798;SDS011;69283;48.024;11.090;2023-12-04T12:06:50;10.75;;;4.80;;
79798;SDS011;69283;48.024;11.090;2023-12-04T12:09:17;9.95;;;4.95;;
79798;SDS011;69283;48.024;11.090;2023-12-04T12:11:43;8.30;;;3.95;;
79798;SDS011;69283;48.024;11.090;2023-12-04T12:14:09;10.20;;;4.65;;
79798;SDS011;69283;48.024;11.090;2023-12-04T12:16:34;18.43;;;7.73;;
79798;SDS011;69283;48.024;11.090;2023-12-04T12:19:00;14.73;;;6.25;;
79798;SDS011;69283;48.024;11.090;2023-12-04T12:21:27;24.35;;;9.13;;
79798;SDS011;69283;48.024;11.090;2023-12-04T12:23:53;14.55;;;6.22;;
79798;SDS011;69283;48.024;11.090;2023-12-04T12:26:19;22.35;;;8.50;;
79798;SDS011;69283;48.024;11.090;2023-12-04T12:28:45;12.60;;;5.97;;
79798;SDS011;69283;48.024;11.090;2023-12-04T12:31:10;14.63;;;6.22;;
79798;SDS011;69283;48.024;11.090;2023-12-04T12:33:35;11.33;;;5.53;;
79798;SDS011;69283;48.024;11.090;2023-12-04T12:36:00;18.93;;;7.57;;
79798;SDS011;69283;48.024;11.090;2023-12-04T12:38:28;21.27;;;9.15;;
79798;SDS011;69283;48.024;11.090;2023-12-04T12:40:55;13.65;;;6.25;;
79798;SDS011;69283;48.024;11.090;2023-12-04T12:43:20;9.63;;;4.18;;
79798;SDS011;69283;48.024;11.090;2023-12-04T12:45:48;12.45;;;4.68;;
79798;SDS011;69283;48.024;11.090;2023-12-04T12:48:13;13.47;;;3.63;;
79798;SDS011;69283;48.024;11.090;2023-12-04T12:50:40;11.98;;;5.47;;
79798;SDS011;69283;48.024;11.090;2023-12-04T12:53:07;10.95;;;4.85;;
79798;SDS011;69283;48.024;11.090;2023-12-04T12:55:32;7.97;;;4.03;;
79798;SDS011;69283;48.024;11.090;2023-12-04T12:57:57;8.77;;;3.50;;
79798;SDS011;69283;48.024;11.090;2023-12-04T13:00:23;7.18;;;3.92;;
79798;SDS011;69283;48.024;11.090;2023-12-04T13:02:48;9.07;;;4.00;;
79798;SDS011;69283;48.024;11.090;2023-12-04T13:07:44;7.88;;;3.75;;
79798;SDS011;69283;48.024;11.090;2023-12-04T13:10:09;10.88;;;5.30;;
79798;SDS011;69283;48.024;11.090;2023-12-04T13:12:36;8.77;;;4.55;;
79798;SDS011;69283;48.024;11.090;2023-12-04T13:15:01;9.02;;;4.90;;
79798;SDS011;69283;48.024;11.090;2023-12-04T13:17:28;10.93;;;4.60;;
79798;SDS011;69283;48.024;11.090;2023-12-04T13:19:54;9.95;;;5.20;;
79798;SDS011;69283;48.024;11.090;2023-12-04T13:22:19;7.72;;;4.70;;
79798;SDS011;69283;48.024;11.090;2023-12-04T13:24:44;13.40;;;5.07;;
79798;SDS011;69283;48.024;11.090;2023-12-04T13:27:11;11.20;;;5.35;;
79798;SDS011;69283;48.024;11.090;2023-12-04T13:29:38;11.68;;;5.10;;
79798;SDS011;69283;48.024;11.090;2023-12-04T13:32:04;13.48;;;6.18;;
79798;SDS011;69283;48.024;11.090;2023-12-04T13:34:30;11.50;;;5.75;;
79798;SDS011;69283;48.024;11.090;2023-12-04T13:36:55;21.27;;;5.97;;
79798;SDS011;69283;48.024;11.090;2023-12-04T13:39:21;10.75;;;5.32;;
79798;SDS011;69283;48.024;11.090;2023-12-04T13:42:06;8.40;;;4.22;;
79798;SDS011;69283;48.024;11.090;2023-12-04T13:44:50;8.05;;;3.75;;
79798;SDS011;69283;48.024;11.090;2023-12-04T13:47:16;9.38;;;4.32;;
79798;SDS011;69283;48.024;11.090;2023-12-04T13:49:42;21.08;;;9.07;;
79798;SDS011;69283;48.024;11.090;2023-12-04T13:52:11;14.60;;;6.45;;
79798;SDS011;69283;48.024;11.090;2023-12-04T13:54:36;11.17;;;5.03;;
79798;SDS011;69283;48.024;11.090;2023-12-04T13:57:13;9.68;;;4.85;;
79798;SDS011;69283;48.024;11.090;2023-12-04T14:00:01;8.77;;;4.28;;
79798;SDS011;69283;48.024;11.090;2023-12-04T14:02:28;9.05;;;4.30;;
79798;SDS011;69283;48.024;11.090;2023-12-04T14:04:54;8.98;;;5.30;;
79798;SDS011;69283;48.024;11.090;2023-12-04T14:07:19;8.07;;;4.17;;
79798;SDS011;69283;48.024;11.090;2023-12-04T14:09:44;26.38;;;9.10;;
79798;SDS011;69283;48.024;11.090;2023-12-04T14:12:10;19.55;;;7.40;;
79798;SDS011;69283;48.024;11.090;2023-12-04T14:14:35;11.65;;;5.25;;
79798;SDS011;69283;48.024;11.090;2023-12-04T14:17:02;13.20;;;5.25;;
79798;SDS011;69283;48.024;11.090;2023-12-04T14:19:29;10.57;;;4.70;;
79798;SDS011;69283;48.024;11.090;2023-12-04T14:21:54;11.80;;;4.63;;
79798;SDS011;69283;48.024;11.090;2023-12-04T14:24:20;9.65;;;4.38;;
79798;SDS011;69283;48.024;11.090;2023-12-04T14:26:46;10.77;;;4.32;;
79798;SDS011;69283;48.024;11.090;2023-12-04T14:29:12;12.55;;;6.72;;